sensor_id;sensor_type;location;lat;lon;timestamp;pressure;altitude;pressure_sealevel;temperature;humidity
44934;BME280;30667;43.614;1.442;2024-03-29T00:01:34;97797.13;;;13.67;100.00
44934;BME280;30667;43.614;1.442;2024-03-29T00:03:59;97794.16;;;13.56;100.00
44934;BME280;30667;43.614;1.442;2024-03-29T00:06:25;97795.91;;;13.48;100.00
44934;BME280;30667;43.614;1.442;2024-03-29T00:08:50;97780.50;;;13.52;100.00
44934;BME280;30667;43.614;1.442;2024-03-29T00:11:16;97778.47;;;14.01;100.00
44934;BME280;30667;43.614;1.442;2024-03-29T00:13:41;97780.44;;;13.84;100.00
44934;BME280;30667;43.614;1.442;2024-03-29T00:16:06;97777.91;;;13.91;100.00
44934;BME280;30667;43.614;1.442;2024-03-29T00:18:32;97786.94;;;13.79;100.00
44934;BME280;30667;43.614;1.442;2024-03-29T00:20:57;97801.25;;;13.60;100.00
44934;BME280;30667;43.614;1.442;2024-03-29T00:23:23;97801.78;;;13.82;100.00
44934;BME280;30667;43.614;1.442;2024-03-29T00:25:48;97809.13;;;13.66;100.00
44934;BME280;30667;43.614;1.442;2024-03-29T00:28:14;97799.47;;;13.84;100.00
44934;BME280;30667;43.614;1.442;2024-03-29T00:30:39;97804.13;;;13.84;100.00
44934;BME280;30667;43.614;1.442;2024-03-29T00:33:05;97809.34;;;13.57;100.00
44934;BME280;30667;43.614;1.442;2024-03-29T00:35:30;97811.50;;;13.67;100.00
44934;BME280;30667;43.614;1.442;2024-03-29T00:37:56;97820.00;;;13.50;100.00
44934;BME280;30667;43.614;1.442;2024-03-29T00:40:21;97806.88;;;13.52;100.00
44934;BME280;30667;43.614;1.442;2024-03-29T00:42:47;97818.34;;;13.29;100.00
44934;BME280;30667;43.614;1.442;2024-03-29T00:45:12;97814.47;;;13.30;100.00
44934;BME280;30667;43.614;1.442;2024-03-29T00:47:38;97800.53;;;13.32;100.00
44934;BME280;30667;43.614;1.442;2024-03-29T00:50:03;97783.91;;;13.33;100.00
44934;BME280;30667;43.614;1.442;2024-03-29T00:52:29;97771.66;;;13.39;100.00
44934;BME280;30667;43.614;1.442;2024-03-29T00:54:54;97789.50;;;13.24;100.00
44934;BME280;30667;43.614;1.442;2024-03-29T00:57:20;97784.59;;;13.30;100.00
44934;BME280;30667;43.614;1.442;2024-03-29T00:59:46;97798.47;;;13.41;100.00
44934;BME280;30667;43.614;1.442;2024-03-29T01:02:12;97799.75;;;13.31;100.00
44934;BME280;30667;43.614;1.442;2024-03-29T01:04:37;97797.69;;;13.40;100.00
44934;BME280;30667;43.614;1.442;2024-03-29T01:07:05;97800.44;;;13.28;100.00
44934;BME280;30667;43.614;1.442;2024-03-29T01:09:30;97789.19;;;13.42;100.00
44934;BME280;30667;43.614;1.442;2024-03-29T01:11:55;97792.72;;;13.78;100.00
44934;BME280;30667;43.614;1.442;2024-03-29T01:14:21;97786.44;;;13.74;100.00
44934;BME280;30667;43.614;1.442;2024-03-29T01:16:47;97782.50;;;13.55;100.00
44934;BME280;30667;43.614;1.442;2024-03-29T01:19:12;97774.00;;;13.57;100.00
44934;BME280;30667;43.614;1.442;2024-03-29T01:21:37;97772.28;;;13.84;100.00
44934;BME280;30667;43.614;1.442;2024-03-29T01:24:03;97777.88;;;14.07;100.00
44934;BME280;30667;43.614;1.442;2024-03-29T01:26:30;97772.31;;;13.68;100.00
44934;BME280;30667;43.614;1.442;2024-03-29T01:28:55;97775.41;;;14.02;100.00
44934;BME280;30667;43.614;1.442;2024-03-29T01:31:22;97786.22;;;13.98;100.00
44934;BME280;30667;43.614;1.442;2024-03-29T01:33:48;97784.66;;;13.81;100.00
44934;BME280;30667;43.614;1.442;2024-03-29T01:36:14;97788.72;;;13.72;100.00
44934;BME280;30667;43.614;1.442;2024-03-29T01:38:40;97773.38;;;13.63;100.00
44934;BME280;30667;43.614;1.442;2024-03-29T01:41:05;97773.59;;;13.55;100.00
44934;BME280;30667;43.614;1.442;2024-03-29T01:43:32;97771.31;;;13.41;100.00
44934;BME280;30667;43.614;1.442;2024-03-29T01:45:57;97758.06;;;13.23;100.00
44934;BME280;30667;43.614;1.442;2024-03-29T01:48:24;97750.56;;;13.33;100.00
44934;BME280;30667;43.614;1.442;2024-03-29T01:50:51;97765.56;;;13.14;100.00
44934;BME280;30667;43.614;1.442;2024-03-29T01:53:19;97769.63;;;13.52;100.00
44934;BME280;30667;43.614;1.442;2024-03-29T01:55:45;97774.53;;;13.62;100.00
44934;BME280;30667;43.614;1.442;2024-03-29T01:58:11;97784.31;;;13.83;100.00
44934;BME280;30667;43.614;1.442;2024-03-29T02:00:39;97788.38;;;13.41;100.00
44934;BME280;30667;43.614;1.442;2024-03-29T02:03:06;97788.03;;;13.43;100.00
44934;BME280;30667;43.614;1.442;2024-03-29T02:05:39;97768.25;;;13.42;100.00
44934;BME280;30667;43.614;1.442;2024-03-29T02:08:06;97775.84;;;13.37;100.00
44934;BME280;30667;43.614;1.442;2024-03-29T02:10:32;97778.22;;;13.38;100.00
44934;BME280;30667;43.614;1.442;2024-03-29T02:12:58;97773.31;;;13.44;100.00
44934;BME280;30667;43.614;1.442;2024-03-29T02:15:23;97782.78;;;13.34;100.00
44934;BME280;30667;43.614;1.442;2024-03-29T02:17:49;97797.31;;;13.26;100.00
44934;BME280;30667;43.614;1.442;2024-03-29T02:20:16;97803.31;;;13.19;100.00
44934;BME280;30667;43.614;1.442;2024-03-29T02:22:54;97798.88;;;13.27;100.00
44934;BME280;30667;43.614;1.442;2024-03-29T02:25:20;97802.81;;;13.30;100.00
44934;BME280;30667;43.614;1.442;2024-03-29T02:27:46;97802.19;;;13.20;100.00
44934;BME280;30667;43.614;1.442;2024-03-29T02:30:14;97812.19;;;13.16;100.00
44934;BME280;30667;43.614;1.442;2024-03-29T02:32:41;97817.44;;;13.09;100.00
44934;BME280;30667;43.614;1.442;2024-03-29T02:35:07;97815.06;;;13.07;100.00
44934;BME280;30667;43.614;1.442;2024-03-29T02:37:34;97835.53;;;13.05;100.00
44934;BME280;30667;43.614;1.442;2024-03-29T02:39:59;97830.00;;;13.01;100.00
44934;BME280;30667;43.614;1.442;2024-03-29T02:42:25;97834.66;;;13.01;100.00
44934;BME280;30667;43.614;1.442;2024-03-29T02:44:50;97833.00;;;12.96;100.00
44934;BME280;30667;43.614;1.442;2024-03-29T02:47:15;97836.41;;;12.93;100.00
44934;BME280;30667;43.614;1.442;2024-03-29T02:49:41;97835.50;;;12.89;100.00
44934;BME280;30667;43.614;1.442;2024-03-29T02:52:06;97830.31;;;12.84;100.00
44934;BME280;30667;43.614;1.442;2024-03-29T02:54:32;97832.06;;;12.76;100.00
44934;BME280;30667;43.614;1.442;2024-03-29T02:56:58;97836.69;;;12.76;100.00
44934;BME280;30667;43.614;1.442;2024-03-29T02:59:23;97856.63;;;12.67;100.00
44934;BME280;30667;43.614;1.442;2024-03-29T03:01:49;97870.31;;;12.59;100.00
44934;BME280;30667;43.614;1.442;2024-03-29T03:04:14;97873.16;;;12.62;100.00
44934;BME280;30667;43.614;1.442;2024-03-29T03:06:39;97866.69;;;12.67;100.00
44934;BME280;30667;43.614;1.442;2024-03-29T03:09:05;97851.97;;;12.68;100.00
44934;BME280;30667;43.614;1.442;2024-03-29T03:11:49;97847.25;;;12.65;100.00
44934;BME280;30667;43.614;1.442;2024-03-29T03:14:14;97850.19;;;12.60;100.00
44934;BME280;30667;43.614;1.442;2024-03-29T03:16:39;97848.75;;;12.62;100.00
44934;BME280;30667;43.614;1.442;2024-03-29T03:19:05;97856.31;;;12.57;100.00
44934;BME280;30667;43.614;1.442;2024-03-29T03:21:35;97860.88;;;12.52;100.00
44934;BME280;30667;43.614;1.442;2024-03-29T03:24:00;97854.88;;;12.47;100.00
44934;BME280;30667;43.614;1.442;2024-03-29T03:26:26;97852.84;;;12.44;100.00
44934;BME280;30667;43.614;1.442;2024-03-29T03:28:51;97828.78;;;12.42;100.00
44934;BME280;30667;43.614;1.442;2024-03-29T03:31:17;97824.72;;;12.36;100.00
44934;BME280;30667;43.614;1.442;2024-03-29T03:33:43;97836.06;;;12.26;100.00
44934;BME280;30667;43.614;1.442;2024-03-29T03:36:08;97847.94;;;12.21;100.00
44934;BME280;30667;43.614;1.442;2024-03-29T03:38:33;97847.03;;;12.17;100.00
44934;BME280;30667;43.614;1.442;2024-03-29T03:41:01;97838.78;;;12.13;100.00
44934;BME280;30667;43.614;1.442;2024-03-29T03:43:27;97827.59;;;12.15;100.00
44934;BME280;30667;43.614;1.442;2024-03-29T03:45:53;97831.91;;;12.16;100.00
44934;BME280;30667;43.614;1.442;2024-03-29T03:48:18;97842.41;;;12.17;100.00
44934;BME280;30667;43.614;1.442;2024-03-29T03:50:44;97827.50;;;12.11;100.00
44934;BME280;30667;43.614;1.442;2024-03-29T03:53:09;97837.53;;;12.11;100.00
44934;BME280;30667;43.614;1.442;2024-03-29T03:55:39;97845.22;;;12.09;100.00
44934;BME280;30667;43.614;1.442;2024-03-29T03:58:04;97850.53;;;12.05;100.00
44934;BME280;30667;43.614;1.442;2024-03-29T04:00:30;97842.31;;;12.02;100.00
44934;BME280;30667;43.614;1.442;2024-03-29T04:02:55;97832.50;;;11.97;100.00
44934;BME280;30667;43.614;1.442;2024-03-29T04:05:22;97832.34;;;11.93;100.00
44934;BME280;30667;43.614;1.442;2024-03-29T04:07:48;97835.28;;;11.88;100.00
44934;BME280;30667;43.614;1.442;2024-03-29T04:10:14;97834.84;;;11.86;100.00
44934;BME280;30667;43.614;1.442;2024-03-29T04:12:39;97822.41;;;11.85;100.00
44934;BME280;30667;43.614;1.442;2024-03-29T04:15:05;97825.78;;;11.82;100.00
44934;BME280;30667;43.614;1.442;2024-03-29T04:17:31;97833.03;;;11.78;100.00
44934;BME280;30667;43.614;1.442;2024-03-29T04:19:57;97832.47;;;11.72;100.00
44934;BME280;30667;43.614;1.442;2024-03-29T04:22:23;97829.66;;;11.69;100.00
44934;BME280;30667;43.614;1.442;2024-03-29T04:24:49;97819.03;;;11.63;100.00
44934;BME280;30667;43.614;1.442;2024-03-29T04:27:15;97819.81;;;11.64;100.00
44934;BME280;30667;43.614;1.442;2024-03-29T04:29:41;97811.25;;;11.62;100.00
44934;BME280;30667;43.614;1.442;2024-03-29T04:32:07;97811.47;;;11.57;100.00
44934;BME280;30667;43.614;1.442;2024-03-29T04:34:34;97829.53;;;11.53;100.00
44934;BME280;30667;43.614;1.442;2024-03-29T04:36:59;97859.66;;;11.51;100.00
44934;BME280;30667;43.614;1.442;2024-03-29T04:39:25;97861.69;;;11.54;100.00
44934;BME280;30667;43.614;1.442;2024-03-29T04:41:50;97863.13;;;11.52;100.00
44934;BME280;30667;43.614;1.442;2024-03-29T04:44:27;97865.06;;;11.51;100.00
44934;BME280;30667;43.614;1.442;2024-03-29T04:46:52;97853.69;;;11.45;100.00
44934;BME280;30667;43.614;1.442;2024-03-29T04:49:19;97868.34;;;11.44;100.00
44934;BME280;30667;43.614;1.442;2024-03-29T04:51:53;97874.75;;;11.40;100.00
44934;BME280;30667;43.614;1.442;2024-03-29T04:54:18;97870.44;;;11.39;100.00
44934;BME280;30667;43.614;1.442;2024-03-29T04:56:44;97873.63;;;11.41;100.00
44934;BME280;30667;43.614;1.442;2024-03-29T04:59:09;97874.03;;;11.31;100.00
44934;BME280;30667;43.614;1.442;2024-03-29T05:01:35;97881.13;;;11.23;100.00
44934;BME280;30667;43.614;1.442;2024-03-29T05:04:01;97881.34;;;11.18;100.00
44934;BME280;30667;43.614;1.442;2024-03-29T05:06:26;97884.06;;;11.18;100.00
44934;BME280;30667;43.614;1.442;2024-03-29T05:08:52;97887.09;;;11.16;100.00
44934;BME280;30667;43.614;1.442;2024-03-29T05:11:18;97886.09;;;11.21;100.00
44934;BME280;30667;43.614;1.442;2024-03-29T05:13:44;97894.81;;;11.26;100.00
44934;BME280;30667;43.614;1.442;2024-03-29T05:16:10;97904.94;;;11.17;100.00
44934;BME280;30667;43.614;1.442;2024-03-29T05:18:35;97897.91;;;11.16;100.00
44934;BME280;30667;43.614;1.442;2024-03-29T05:21:01;97889.78;;;11.16;100.00
44934;BME280;30667;43.614;1.442;2024-03-29T05:23:26;97891.59;;;11.12;100.00
44934;BME280;30667;43.614;1.442;2024-03-29T05:25:52;97891.66;;;11.03;100.00
44934;BME280;30667;43.614;1.442;2024-03-29T05:28:17;97891.75;;;10.95;100.00
44934;BME280;30667;43.614;1.442;2024-03-29T05:30:43;97874.38;;;10.96;100.00
44934;BME280;30667;43.614;1.442;2024-03-29T05:33:09;97870.13;;;10.95;100.00
44934;BME280;30667;43.614;1.442;2024-03-29T05:35:34;97886.13;;;11.00;100.00
44934;BME280;30667;43.614;1.442;2024-03-29T05:38:00;97892.34;;;11.00;100.00
44934;BME280;30667;43.614;1.442;2024-03-29T05:40:25;97897.63;;;10.97;100.00
44934;BME280;30667;43.614;1.442;2024-03-29T05:42:53;97901.19;;;10.88;100.00
44934;BME280;30667;43.614;1.442;2024-03-29T05:45:31;97906.94;;;10.87;100.00
44934;BME280;30667;43.614;1.442;2024-03-29T05:47:58;97906.53;;;10.97;100.00
44934;BME280;30667;43.614;1.442;2024-03-29T05:50:24;97885.81;;;11.01;100.00
44934;BME280;30667;43.614;1.442;2024-03-29T05:52:53;97893.34;;;10.96;100.00
44934;BME280;30667;43.614;1.442;2024-03-29T05:55:19;97901.22;;;11.01;100.00
44934;BME280;30667;43.614;1.442;2024-03-29T05:57:45;97904.88;;;11.05;100.00
44934;BME280;30667;43.614;1.442;2024-03-29T06:00:12;97902.75;;;11.11;100.00
44934;BME280;30667;43.614;1.442;2024-03-29T06:02:39;97914.59;;;11.06;100.00
44934;BME280;30667;43.614;1.442;2024-03-29T06:05:05;97916.03;;;11.03;100.00
44934;BME280;30667;43.614;1.442;2024-03-29T06:07:31;97916.47;;;11.05;100.00
44934;BME280;30667;43.614;1.442;2024-03-29T06:09:59;97913.66;;;11.02;100.00
44934;BME280;30667;43.614;1.442;2024-03-29T06:12:25;97927.50;;;11.00;100.00
44934;BME280;30667;43.614;1.442;2024-03-29T06:14:51;97916.69;;;11.00;100.00
44934;BME280;30667;43.614;1.442;2024-03-29T06:17:35;97925.59;;;11.01;100.00
44934;BME280;30667;43.614;1.442;2024-03-29T06:20:02;97934.63;;;11.05;100.00
44934;BME280;30667;43.614;1.442;2024-03-29T06:22:29;97931.59;;;11.06;100.00
44934;BME280;30667;43.614;1.442;2024-03-29T06:24:56;97933.53;;;11.06;100.00
44934;BME280;30667;43.614;1.442;2024-03-29T06:27:31;97933.44;;;11.15;100.00
44934;BME280;30667;43.614;1.442;2024-03-29T06:29:56;97926.16;;;11.27;100.00
44934;BME280;30667;43.614;1.442;2024-03-29T06:32:21;97917.47;;;11.22;100.00
44934;BME280;30667;43.614;1.442;2024-03-29T06:34:47;97930.94;;;11.09;100.00
44934;BME280;30667;43.614;1.442;2024-03-29T06:37:13;97931.72;;;11.10;100.00
44934;BME280;30667;43.614;1.442;2024-03-29T06:39:39;97944.13;;;11.11;100.00
44934;BME280;30667;43.614;1.442;2024-03-29T06:42:05;97944.47;;;11.09;100.00
44934;BME280;30667;43.614;1.442;2024-03-29T06:44:34;97929.72;;;11.19;100.00
44934;BME280;30667;43.614;1.442;2024-03-29T06:46:59;97923.44;;;11.27;100.00
44934;BME280;30667;43.614;1.442;2024-03-29T06:49:25;97910.16;;;11.35;100.00
44934;BME280;30667;43.614;1.442;2024-03-29T06:51:50;97916.38;;;11.35;100.00
44934;BME280;30667;43.614;1.442;2024-03-29T06:54:15;97923.28;;;11.45;100.00
44934;BME280;30667;43.614;1.442;2024-03-29T06:56:41;97913.81;;;11.51;100.00
44934;BME280;30667;43.614;1.442;2024-03-29T06:59:06;97924.75;;;11.55;100.00
44934;BME280;30667;43.614;1.442;2024-03-29T07:01:33;97921.25;;;11.54;100.00
44934;BME280;30667;43.614;1.442;2024-03-29T07:03:58;97929.16;;;11.59;100.00
44934;BME280;30667;43.614;1.442;2024-03-29T07:06:24;97941.25;;;11.62;100.00
44934;BME280;30667;43.614;1.442;2024-03-29T07:08:50;97933.25;;;11.66;100.00
44934;BME280;30667;43.614;1.442;2024-03-29T07:11:15;97934.84;;;11.67;100.00
44934;BME280;30667;43.614;1.442;2024-03-29T07:13:41;97939.44;;;11.66;100.00
44934;BME280;30667;43.614;1.442;2024-03-29T07:16:06;97948.06;;;11.68;100.00
44934;BME280;30667;43.614;1.442;2024-03-29T07:18:34;97957.88;;;11.73;100.00
44934;BME280;30667;43.614;1.442;2024-03-29T07:21:00;97954.50;;;11.76;100.00
44934;BME280;30667;43.614;1.442;2024-03-29T07:23:25;97939.03;;;11.76;100.00
44934;BME280;30667;43.614;1.442;2024-03-29T07:26:02;97940.25;;;11.79;100.00
44934;BME280;30667;43.614;1.442;2024-03-29T07:28:28;97941.97;;;11.84;100.00
44934;BME280;30667;43.614;1.442;2024-03-29T07:30:54;97944.00;;;11.87;100.00
44934;BME280;30667;43.614;1.442;2024-03-29T07:33:23;97936.53;;;11.84;100.00
44934;BME280;30667;43.614;1.442;2024-03-29T07:35:52;97924.25;;;11.86;100.00
44934;BME280;30667;43.614;1.442;2024-03-29T07:38:18;97923.25;;;11.91;100.00
44934;BME280;30667;43.614;1.442;2024-03-29T07:40:46;97913.84;;;11.88;100.00
44934;BME280;30667;43.614;1.442;2024-03-29T07:43:12;97902.69;;;11.90;100.00
44934;BME280;30667;43.614;1.442;2024-03-29T07:45:42;97894.56;;;11.90;100.00
44934;BME280;30667;43.614;1.442;2024-03-29T07:48:12;97887.38;;;11.94;100.00
44934;BME280;30667;43.614;1.442;2024-03-29T07:50:41;97878.22;;;11.98;100.00
44934;BME280;30667;43.614;1.442;2024-03-29T07:53:07;97892.13;;;11.97;100.00
44934;BME280;30667;43.614;1.442;2024-03-29T07:55:34;97905.66;;;11.97;100.00
44934;BME280;30667;43.614;1.442;2024-03-29T07:58:00;97904.84;;;11.96;100.00
44934;BME280;30667;43.614;1.442;2024-03-29T08:00:26;97909.25;;;12.01;100.00
44934;BME280;30667;43.614;1.442;2024-03-29T08:02:51;97908.00;;;12.11;100.00
44934;BME280;30667;43.614;1.442;2024-03-29T08:05:19;97915.94;;;12.16;100.00
44934;BME280;30667;43.614;1.442;2024-03-29T08:07:45;97921.81;;;12.30;100.00
44934;BME280;30667;43.614;1.442;2024-03-29T08:10:10;97922.25;;;12.32;100.00
44934;BME280;30667;43.614;1.442;2024-03-29T08:12:36;97932.66;;;12.30;100.00
44934;BME280;30667;43.614;1.442;2024-03-29T08:15:03;97932.41;;;12.35;100.00
44934;BME280;30667;43.614;1.442;2024-03-29T08:17:28;97935.56;;;12.38;100.00
44934;BME280;30667;43.614;1.442;2024-03-29T08:19:54;97926.31;;;12.39;100.00
44934;BME280;30667;43.614;1.442;2024-03-29T08:22:19;97918.84;;;12.35;100.00
44934;BME280;30667;43.614;1.442;2024-03-29T08:24:45;97932.19;;;12.41;100.00
44934;BME280;30667;43.614;1.442;2024-03-29T08:27:11;97926.06;;;12.44;100.00
44934;BME280;30667;43.614;1.442;2024-03-29T08:29:36;97936.72;;;12.37;100.00
44934;BME280;30667;43.614;1.442;2024-03-29T08:32:02;97939.44;;;12.37;100.00
44934;BME280;30667;43.614;1.442;2024-03-29T08:34:28;97926.41;;;12.42;100.00
44934;BME280;30667;43.614;1.442;2024-03-29T08:37:00;97921.56;;;12.48;100.00
44934;BME280;30667;43.614;1.442;2024-03-29T08:39:25;97904.94;;;12.49;100.00
44934;BME280;30667;43.614;1.442;2024-03-29T08:41:51;97906.06;;;12.48;100.00
44934;BME280;30667;43.614;1.442;2024-03-29T08:44:16;97916.56;;;12.62;100.00
44934;BME280;30667;43.614;1.442;2024-03-29T08:46:41;97926.47;;;12.70;100.00
44934;BME280;30667;43.614;1.442;2024-03-29T08:49:07;97933.88;;;12.86;100.00
44934;BME280;30667;43.614;1.442;2024-03-29T08:51:32;97933.59;;;13.03;100.00
44934;BME280;30667;43.614;1.442;2024-03-29T08:53:58;97928.81;;;13.13;100.00
44934;BME280;30667;43.614;1.442;2024-03-29T08:56:24;97925.97;;;13.21;100.00
44934;BME280;30667;43.614;1.442;2024-03-29T08:58:49;97914.72;;;13.35;100.00
44934;BME280;30667;43.614;1.442;2024-03-29T09:01:14;97920.00;;;13.44;100.00
44934;BME280;30667;43.614;1.442;2024-03-29T09:03:40;97922.13;;;13.51;100.00
44934;BME280;30667;43.614;1.442;2024-03-29T09:06:06;97921.16;;;13.59;100.00
44934;BME280;30667;43.614;1.442;2024-03-29T09:08:31;97920.19;;;13.67;100.00
44934;BME280;30667;43.614;1.442;2024-03-29T09:10:57;97920.47;;;13.78;100.00
44934;BME280;30667;43.614;1.442;2024-03-29T09:13:23;97920.66;;;13.85;100.00
44934;BME280;30667;43.614;1.442;2024-03-29T09:15:49;97922.56;;;14.01;100.00
44934;BME280;30667;43.614;1.442;2024-03-29T09:18:14;97929.41;;;14.10;100.00
44934;BME280;30667;43.614;1.442;2024-03-29T09:20:56;97927.41;;;14.23;100.00
44934;BME280;30667;43.614;1.442;2024-03-29T09:23:22;97912.00;;;14.31;100.00
44934;BME280;30667;43.614;1.442;2024-03-29T09:25:48;97918.34;;;14.35;100.00
44934;BME280;30667;43.614;1.442;2024-03-29T09:28:13;97918.22;;;14.47;100.00
44934;BME280;30667;43.614;1.442;2024-03-29T09:30:39;97915.94;;;14.49;100.00
44934;BME280;30667;43.614;1.442;2024-03-29T09:33:04;97912.84;;;14.67;100.00
44934;BME280;30667;43.614;1.442;2024-03-29T09:35:34;97904.09;;;14.77;100.00
44934;BME280;30667;43.614;1.442;2024-03-29T09:37:59;97900.81;;;14.87;100.00
44934;BME280;30667;43.614;1.442;2024-03-29T09:40:26;97893.06;;;14.89;100.00
44934;BME280;30667;43.614;1.442;2024-03-29T09:43:02;97884.19;;;14.93;100.00
44934;BME280;30667;43.614;1.442;2024-03-29T09:45:32;97887.97;;;14.88;100.00
44934;BME280;30667;43.614;1.442;2024-03-29T09:48:01;97888.22;;;14.99;100.00
44934;BME280;30667;43.614;1.442;2024-03-29T09:50:28;97882.03;;;15.02;100.00
44934;BME280;30667;43.614;1.442;2024-03-29T09:52:55;97880.03;;;14.99;100.00
44934;BME280;30667;43.614;1.442;2024-03-29T09:55:29;97875.03;;;14.81;100.00
44934;BME280;30667;43.614;1.442;2024-03-29T09:57:55;97879.88;;;14.92;100.00
44934;BME280;30667;43.614;1.442;2024-03-29T10:00:21;97881.16;;;14.98;100.00
44934;BME280;30667;43.614;1.442;2024-03-29T10:02:49;97880.53;;;15.04;100.00
44934;BME280;30667;43.614;1.442;2024-03-29T10:05:15;97887.13;;;15.03;100.00
44934;BME280;30667;43.614;1.442;2024-03-29T10:07:42;97888.63;;;15.01;100.00
44934;BME280;30667;43.614;1.442;2024-03-29T10:10:10;97881.25;;;15.01;100.00
44934;BME280;30667;43.614;1.442;2024-03-29T10:12:36;97881.22;;;15.21;100.00
44934;BME280;30667;43.614;1.442;2024-03-29T10:15:03;97875.56;;;15.10;100.00
44934;BME280;30667;43.614;1.442;2024-03-29T10:17:55;97874.63;;;15.22;100.00
44934;BME280;30667;43.614;1.442;2024-03-29T10:20:20;97874.81;;;15.33;100.00
44934;BME280;30667;43.614;1.442;2024-03-29T10:22:48;97875.06;;;15.47;100.00
44934;BME280;30667;43.614;1.442;2024-03-29T10:25:14;97864.59;;;15.49;100.00
44934;BME280;30667;43.614;1.442;2024-03-29T10:27:40;97869.69;;;15.74;100.00
44934;BME280;30667;43.614;1.442;2024-03-29T10:30:09;97857.41;;;15.60;100.00
44934;BME280;30667;43.614;1.442;2024-03-29T10:32:39;97849.78;;;15.93;100.00
44934;BME280;30667;43.614;1.442;2024-03-29T10:35:08;97845.53;;;15.72;100.00
44934;BME280;30667;43.614;1.442;2024-03-29T10:37:35;97839.84;;;15.81;100.00
44934;BME280;30667;43.614;1.442;2024-03-29T10:40:13;97838.22;;;16.03;100.00
44934;BME280;30667;43.614;1.442;2024-03-29T10:42:43;97841.59;;;15.93;100.00
44934;BME280;30667;43.614;1.442;2024-03-29T10:45:10;97832.63;;;15.92;100.00
44934;BME280;30667;43.614;1.442;2024-03-29T10:47:36;97834.97;;;15.71;100.00
44934;BME280;30667;43.614;1.442;2024-03-29T10:50:02;97843.72;;;15.80;100.00
44934;BME280;30667;43.614;1.442;2024-03-29T10:52:31;97836.19;;;15.96;100.00
44934;BME280;30667;43.614;1.442;2024-03-29T10:54:56;97831.78;;;15.88;100.00
44934;BME280;30667;43.614;1.442;2024-03-29T10:57:27;97814.28;;;15.89;100.00
44934;BME280;30667;43.614;1.442;2024-03-29T11:00:11;97813.06;;;15.87;100.00
44934;BME280;30667;43.614;1.442;2024-03-29T11:02:58;97824.28;;;15.82;100.00
44934;BME280;30667;43.614;1.442;2024-03-29T11:05:33;97816.72;;;15.98;100.00
44934;BME280;30667;43.614;1.442;2024-03-29T11:08:02;97815.75;;;16.40;100.00
44934;BME280;30667;43.614;1.442;2024-03-29T11:10:41;97809.88;;;16.42;100.00
44934;BME280;30667;43.614;1.442;2024-03-29T11:15:44;97795.97;;;16.50;100.00
44934;BME280;30667;43.614;1.442;2024-03-29T11:18:11;97800.56;;;16.43;100.00
44934;BME280;30667;43.614;1.442;2024-03-29T11:20:38;97806.59;;;16.59;100.00
44934;BME280;30667;43.614;1.442;2024-03-29T11:23:11;97804.50;;;16.15;100.00
44934;BME280;30667;43.614;1.442;2024-03-29T11:25:42;97803.75;;;16.48;100.00
44934;BME280;30667;43.614;1.442;2024-03-29T11:28:07;97795.31;;;16.30;100.00
44934;BME280;30667;43.614;1.442;2024-03-29T11:30:46;97793.28;;;16.24;100.00
44934;BME280;30667;43.614;1.442;2024-03-29T11:35:58;97786.00;;;16.31;100.00
44934;BME280;30667;43.614;1.442;2024-03-29T11:38:34;97783.03;;;16.44;100.00
44934;BME280;30667;43.614;1.442;2024-03-29T11:41:01;97776.94;;;16.58;100.00
44934;BME280;30667;43.614;1.442;2024-03-29T11:43:29;97780.22;;;16.70;100.00
44934;BME280;30667;43.614;1.442;2024-03-29T11:45:55;97767.63;;;16.62;100.00
44934;BME280;30667;43.614;1.442;2024-03-29T11:48:23;97767.75;;;16.73;100.00
44934;BME280;30667;43.614;1.442;2024-03-29T11:50:52;97764.44;;;16.87;100.00
44934;BME280;30667;43.614;1.442;2024-03-29T11:53:21;97762.19;;;16.62;100.00
44934;BME280;30667;43.614;1.442;2024-03-29T11:55:47;97756.03;;;17.06;100.00
44934;BME280;30667;43.614;1.442;2024-03-29T11:58:14;97756.84;;;17.11;100.00
44934;BME280;30667;43.614;1.442;2024-03-29T12:00:41;97754.34;;;16.61;100.00
44934;BME280;30667;43.614;1.442;2024-03-29T12:03:10;97749.38;;;16.32;100.00
44934;BME280;30667;43.614;1.442;2024-03-29T12:05:35;97746.66;;;16.70;100.00
44934;BME280;30667;43.614;1.442;2024-03-29T12:08:01;97737.31;;;16.71;100.00
44934;BME280;30667;43.614;1.442;2024-03-29T12:10:30;97735.00;;;17.11;100.00
44934;BME280;30667;43.614;1.442;2024-03-29T12:12:59;97748.69;;;16.77;100.00
44934;BME280;30667;43.614;1.442;2024-03-29T12:15:27;97736.41;;;16.56;100.00
44934;BME280;30667;43.614;1.442;2024-03-29T12:17:58;97717.22;;;16.86;100.00
44934;BME280;30667;43.614;1.442;2024-03-29T12:20:24;97743.66;;;16.79;100.00
44934;BME280;30667;43.614;1.442;2024-03-29T12:22:50;97735.34;;;16.68;100.00
44934;BME280;30667;43.614;1.442;2024-03-29T12:25:16;97723.41;;;16.83;100.00
44934;BME280;30667;43.614;1.442;2024-03-29T12:27:42;97722.72;;;16.90;100.00
44934;BME280;30667;43.614;1.442;2024-03-29T12:30:09;97729.22;;;17.19;100.00
44934;BME280;30667;43.614;1.442;2024-03-29T12:32:34;97725.94;;;17.03;100.00
44934;BME280;30667;43.614;1.442;2024-03-29T12:35:14;97720.97;;;16.75;100.00
44934;BME280;30667;43.614;1.442;2024-03-29T12:37:49;97729.34;;;16.55;100.00
44934;BME280;30667;43.614;1.442;2024-03-29T12:40:18;97729.97;;;16.41;100.00
44934;BME280;30667;43.614;1.442;2024-03-29T12:42:48;97731.19;;;16.44;100.00
44934;BME280;30667;43.614;1.442;2024-03-29T12:45:14;97725.28;;;16.42;100.00
44934;BME280;30667;43.614;1.442;2024-03-29T12:47:40;97723.78;;;16.44;100.00
44934;BME280;30667;43.614;1.442;2024-03-29T12:50:05;97717.03;;;16.34;100.00
44934;BME280;30667;43.614;1.442;2024-03-29T12:52:40;97724.47;;;16.38;100.00
44934;BME280;30667;43.614;1.442;2024-03-29T12:55:07;97728.44;;;16.81;100.00